Map

Track Data

SID SEASON NUMBER BASIN SUBBASIN NAME ISO_TIME NATURE LAT LON WMO_WIND WMO_PRES WMO_AGENCY TRACK_TYPE DIST2LAND LANDFALL IFLAG USA_AGENCY USA_ATCF_ID USA_LAT USA_LON USA_RECORD USA_STATUS USA_WIND USA_PRES USA_SSHS USA_R34_NE USA_R34_SE USA_R34_SW USA_R34_NW USA_R50_NE USA_R50_SE USA_R50_SW USA_R50_NW USA_R64_NE USA_R64_SE USA_R64_SW USA_R64_NW USA_POCI USA_ROCI USA_RMW USA_EYE TOKYO_LAT TOKYO_LON TOKYO_GRADE TOKYO_WIND TOKYO_PRES TOKYO_R50_DIR TOKYO_R50_LONG TOKYO_R50_SHORT TOKYO_R30_DIR TOKYO_R30_LONG TOKYO_R30_SHORT TOKYO_LAND CMA_LAT CMA_LON CMA_CAT CMA_WIND CMA_PRES HKO_LAT HKO_LON HKO_CAT HKO_WIND HKO_PRES NEWDELHI_LAT NEWDELHI_LON NEWDELHI_GRADE NEWDELHI_WIND NEWDELHI_PRES NEWDELHI_CI NEWDELHI_DP NEWDELHI_POCI REUNION_LAT REUNION_LON REUNION_TYPE REUNION_WIND REUNION_PRES REUNION_TNUM REUNION_CI REUNION_RMW REUNION_R34_NE REUNION_R34_SE REUNION_R34_SW REUNION_R34_NW REUNION_R50_NE REUNION_R50_SE REUNION_R50_SW REUNION_R50_NW REUNION_R64_NE REUNION_R64_SE REUNION_R64_SW REUNION_R64_NW BOM_LAT BOM_LON BOM_TYPE BOM_WIND BOM_PRES BOM_TNUM BOM_CI BOM_RMW BOM_R34_NE BOM_R34_SE BOM_R34_SW BOM_R34_NW BOM_R50_NE BOM_R50_SE BOM_R50_SW BOM_R50_NW BOM_R64_NE BOM_R64_SE BOM_R64_SW BOM_R64_NW BOM_ROCI BOM_POCI BOM_EYE BOM_POS_METHOD BOM_PRES_METHOD NADI_LAT NADI_LON NADI_CAT NADI_WIND NADI_PRES WELLINGTON_LAT WELLINGTON_LON WELLINGTON_WIND WELLINGTON_PRES DS824_LAT DS824_LON DS824_STAGE DS824_WIND DS824_PRES TD9636_LAT TD9636_LON TD9636_STAGE TD9636_WIND TD9636_PRES TD9635_LAT TD9635_LON TD9635_WIND TD9635_PRES TD9635_ROCI NEUMANN_LAT NEUMANN_LON NEUMANN_CLASS NEUMANN_WIND NEUMANN_PRES MLC_LAT MLC_LON MLC_CLASS MLC_WIND MLC_PRES USA_GUST BOM_GUST BOM_GUST_PER REUNION_GUST REUNION_GUST_PER USA_SEAHGT USA_SEARAD_NE USA_SEARAD_SE USA_SEARAD_SW USA_SEARAD_NW STORM_SPEED STORM_DIR
1948032S13179 1948 13 SP MM NOT_NAMED 1948-02-01 00:00:00 TS -13.0000 178.900 main 371 359 O________OO___ jtwc_sh SH091948 -13.0000 178.900 -1 -13.0000 178.900 TC -13.0000 178.900 2 10 241
1948032S13179 1948 13 SP MM NOT_NAMED 1948-02-01 03:00:00 TS -13.2519 178.443 main 356 347 P________PP___ SH091948 -13.2502 178.438 -1 -13.2502 178.438 TC -13.2555 178.452 2 10 240
1948032S13179 1948 13 SP MM NOT_NAMED 1948-02-01 06:00:00 TS -13.5028 178.008 main 352 338 O________OP___ jtwc_sh SH091948 -13.5000 178.000 -1 -13.5000 178.000 TC -13.5084 178.024 2 9 238
1948032S13179 1948 13 SP MM NOT_NAMED 1948-02-01 09:00:00 TS -13.7523 177.619 main 337 328 P________PP___ SH091948 -13.7500 177.612 -1 -13.7500 177.612 TC -13.7571 177.633 2 9 234
1948032S13179 1948 13 SP MM NOT_NAMED 1948-02-01 12:00:00 TS -14.0000 177.300 main 328 317 O________OO___ jtwc_sh SH091948 -14.0000 177.300 -1 -14.0000 177.300 TC -14.0000 177.300 2 7 228
1948032S13179 1948 13 SP MM NOT_NAMED 1948-02-01 15:00:00 TS -14.2458 177.064 main 317 300 P________PP___ SH091948 -14.2499 177.077 -1 -14.2499 177.077 TC -14.2374 177.038 2 6 220
1948032S13179 1948 13 SP MM NOT_NAMED 1948-02-01 18:00:00 TS -14.4924 176.877 main 300 288 O________OP___ jtwc_sh SH091948 -14.5000 176.900 -1 -14.5000 176.900 TC -14.4771 176.832 2 6 217
1948032S13179 1948 13 SP MM NOT_NAMED 1948-02-01 21:00:00 TS -14.7377 176.687 main 295 286 P________PP___ SH091948 -14.7425 176.700 -1 -14.7425 176.700 TC -14.7282 176.660 2 6 216
1948032S13179 1948 13 SP MM NOT_NAMED 1948-02-02 00:00:00 TS -15.0000 176.500 main 286 277 O________OO___ jtwc_sh SH091948 -15.0000 176.500 -1 -15.0000 176.500 TC -15.0000 176.500 2 7 214
1948032S13179 1948 13 SP MM NOT_NAMED 1948-02-02 03:00:00 TS -15.2925 176.297 main 277 259 P________PP___ SH091948 -15.2850 176.292 -1 -15.2850 176.292 TC -15.3075 176.306 2 7 212
1948032S13179 1948 13 SP MM NOT_NAMED 1948-02-02 06:00:00 TS -15.6117 176.107 main 259 239 O________OP___ jtwc_sh SH091948 -15.6000 176.100 -1 -15.6000 176.100 TC -15.6350 176.120 2 8 207
1948032S13179 1948 13 SP MM NOT_NAMED 1948-02-02 09:00:00 TS -15.9567 175.945 main 239 223 P________PP___ SH091948 -15.9500 175.942 -1 -15.9500 175.942 TC -15.9700 175.949 2 8 203
1948032S13179 1948 13 SP MM NOT_NAMED 1948-02-02 12:00:00 TS -16.3000 175.800 main 223 216 O________OO___ jtwc_sh SH091948 -16.3000 175.800 -1 -16.3000 175.800 TC -16.3000 175.800 2 7 205
1948032S13179 1948 13 SP MM NOT_NAMED 1948-02-02 15:00:00 TS -16.5965 175.631 main 221 216 P________PP___ SH091948 -16.6075 175.635 -1 -16.6075 175.635 TC -16.5746 175.622 2 7 207
1948032S13179 1948 13 SP MM NOT_NAMED 1948-02-02 18:00:00 TS -16.8824 175.491 main 216 210 O________OP___ jtwc_sh SH091948 -16.9000 175.500 -1 -16.9000 175.500 TC -16.8473 175.474 2 6 201
1948032S13179 1948 13 SP MM NOT_NAMED 1948-02-02 21:00:00 TS -17.1671 175.399 main 210 198 P________PP___ SH091948 -17.1775 175.405 -1 -17.1775 175.405 TC -17.1464 175.388 2 6 188
1948032S13179 1948 13 SP MM NOT_NAMED 1948-02-03 00:00:00 TS -17.5000 175.400 main 198 180 O________OO___ jtwc_sh SH091948 -17.5000 175.400 -1 -17.5000 175.400 TC -17.5000 175.400 2 8 173
1948032S13179 1948 13 SP MM NOT_NAMED 1948-02-03 03:00:00 TS -17.9292 175.502 main 180 162 P________PP___ SH091948 -17.9124 175.490 -1 -17.9124 175.490 TC -17.9627 175.524 2 10 162
1948032S13179 1948 13 SP MM NOT_NAMED 1948-02-03 06:00:00 TS -18.4258 175.716 main 164 157 O________OP___ jtwc_sh SH091948 -18.4000 175.700 -1 -18.4000 175.700 TC -18.4774 175.749 2 12 155
1948032S13179 1948 13 SP MM NOT_NAMED 1948-02-03 09:00:00 TS -18.9778 176.030 main 168 161 P________PP___ SH091948 -18.9651 176.020 -1 -18.9651 176.020 TC -19.0033 176.050 2 13 149
1948032S13179 1948 13 SP MM NOT_NAMED 1948-02-03 12:00:00 TS -19.5000 176.400 main 183 183 O________OO___ jtwc_sh SH091948 -19.5000 176.400 -1 -19.5000 176.400 TC -19.5000 176.400 2 11 144
1948032S13179 1948 13 SP MM NOT_NAMED 1948-02-03 15:00:00 TS -19.8713 176.725 main 211 207 P________PP___ SH091948 -19.8723 176.736 -1 -19.8723 176.736 TC -19.8694 176.703 2 10 138
1948032S13179 1948 13 SP MM NOT_NAMED 1948-02-03 18:00:00 TS -20.2036 177.085 main 228 228 O________OP___ jtwc_sh SH091948 -20.2000 177.100 -1 -20.2000 177.100 TC -20.2109 177.054 2 10 134
1948032S13179 1948 13 SP MM NOT_NAMED 1948-02-03 21:00:00 TS -20.5704 177.487 main 260 259 P________PP___ SH091948 -20.5696 177.491 -1 -20.5696 177.491 TC -20.5720 177.479 2 12 133
1948032S13179 1948 13 SP MM NOT_NAMED 1948-02-04 00:00:00 TS -21.0000 178.000 main 302 302 O________OO___ jtwc_sh SH091948 -21.0000 178.000 -1 -21.0000 178.000 TC -21.0000 178.000 2 15 130
1948032S13179 1948 13 SP MM NOT_NAMED 1948-02-04 03:00:00 TS -21.5136 178.694 main 361 361 P________PP___ SH091948 -21.5052 178.705 -1 -21.5052 178.705 TC -21.5305 178.673 2 18 129
1948032S13179 1948 13 SP MM NOT_NAMED 1948-02-04 06:00:00 TS -22.1108 179.480 main 446 446 O________OP___ jtwc_sh SH091948 -22.1000 179.500 -1 -22.1000 179.500 TC -22.1325 179.439 2 19 131
1948032S13179 1948 13 SP MM NOT_NAMED 1948-02-04 09:00:00 TS -22.7776 180.255 main 548 548 P________PP___ SH091948 -22.7699 -179.735 -1 -22.7699 -179.735 TC -22.7930 -179.764 2 20 135
1948032S13179 1948 13 SP MM NOT_NAMED 1948-02-04 12:00:00 TS -23.5000 181.000 main 649 649 O________OO___ jtwc_sh SH091948 -23.5000 -179.000 -1 -23.5000 181.000 TC -23.5000 -179.000 2 20 138
1948032S13179 1948 13 SP MM NOT_NAMED 1948-02-04 15:00:00 TS -24.2334 181.677 main 749 749 P________PP___ SH091948 -24.2347 -178.319 -1 -24.2347 -178.319 TC -24.2309 -178.332 2 19 142
1948032S13179 1948 13 SP MM NOT_NAMED 1948-02-04 18:00:00 TS -25.0013 182.297 main 856 856 O________OP___ jtwc_sh SH091948 -25.0000 -177.700 -1 -25.0000 182.300 TC -25.0039 -177.709 2 19 145
1948032S13179 1948 13 SP MM NOT_NAMED 1948-02-04 21:00:00 TS -25.7998 182.872 main 963 963 P________PP___ SH091948 -25.7997 -177.127 -1 -25.7997 -177.127 TC -25.8000 -177.132 2 19 148
1948032S13179 1948 13 SP MM NOT_NAMED 1948-02-05 00:00:00 TS -26.6000 183.400 main 1065 1065 O________OO___ jtwc_sh SH091948 -26.6000 -176.600 -1 -26.6000 183.400 TC -26.6000 -176.600 2 18 149
1948032S13179 1948 13 SP MM NOT_NAMED 1948-02-05 03:00:00 TS -27.3620 183.922 main 1167 1167 P________PP___ SH091948 -27.3499 -176.077 -1 -27.3499 -176.077 TC -27.3863 -176.081 2 18 150
1948032S13179 1948 13 SP MM NOT_NAMED 1948-02-05 06:00:00 TS -28.1238 184.397 main 1198 1136 O________OP___ jtwc_sh SH091948 -28.1000 -175.600 -1 -28.1000 184.400 TC -28.1715 -175.608 2 18 153
1948032S13179 1948 13 SP MM NOT_NAMED 1948-02-05 09:00:00 TS -28.9152 184.822 main 1136 1079 P________PP___ SH091948 -28.8998 -175.177 -1 -28.8998 -175.177 TC -28.9460 -175.181 2 17 156
1948032S13179 1948 13 SP MM NOT_NAMED 1948-02-05 12:00:00 TS -29.7000 185.200 main 1079 1031 O________OO___ jtwc_sh SH091948 -29.7000 -174.800 -1 -29.7000 185.200 TC -29.7000 -174.800 2 17 157
1948032S13179 1948 13 SP MM NOT_NAMED 1948-02-05 15:00:00 TS -30.4571 185.561 main 1027 987 P________PP___ SH091948 -30.4724 -174.427 -1 -30.4724 -174.427 TC -30.4265 -174.462 2 16 158
1948032S13179 1948 13 SP MM NOT_NAMED 1948-02-05 18:00:00 TS -31.1768 185.881 main 984 947 O________OP___ jtwc_sh SH091948 -31.2000 -174.100 -1 -31.2000 185.900 TC -31.1304 -174.157 2 15 160
1948032S13179 1948 13 SP MM NOT_NAMED 1948-02-05 21:00:00 TS -31.8514 186.153 main 946 914 P________PP___ SH091948 -31.8675 -173.833 -1 -31.8675 -173.833 TC -31.8191 -173.874 2 14 162
1948032S13179 1948 13 SP MM NOT_NAMED 1948-02-06 00:00:00 TS -32.5000 186.400 main 914 O________OO___ jtwc_sh SH091948 -32.5000 -173.600 -1 -32.5000 186.400 TC -32.5000 -173.600 2 14 162

Digital Typhoon Data and Search

About IBTrACS Database

This database is a web-friendly format of International Best Track Archive for Climate Stewardship (IBTrACS), a global best track data archive curated by NOAA dating back to 1842.

Updated: 2021-10-21